sensor_id;sensor_type;location;lat;lon;timestamp;P1;durP1;ratioP1;P2;durP2;ratioP2
1591;SDS011;789;51.612;7.510;2023-11-18T00:02:21;32.33;;;25.58;;
1591;SDS011;789;51.612;7.510;2023-11-18T00:04:49;34.90;;;24.60;;
1591;SDS011;789;51.612;7.510;2023-11-18T00:07:16;30.80;;;24.40;;
1591;SDS011;789;51.612;7.510;2023-11-18T00:09:43;29.83;;;23.13;;
1591;SDS011;789;51.612;7.510;2023-11-18T00:12:10;33.45;;;24.00;;
1591;SDS011;789;51.612;7.510;2023-11-18T00:14:37;34.90;;;24.85;;
1591;SDS011;789;51.612;7.510;2023-11-18T00:17:05;33.78;;;25.38;;
1591;SDS011;789;51.612;7.510;2023-11-18T00:19:33;36.08;;;25.65;;
1591;SDS011;789;51.612;7.510;2023-11-18T00:22:01;42.75;;;29.13;;
1591;SDS011;789;51.612;7.510;2023-11-18T00:24:28;37.97;;;25.63;;
1591;SDS011;789;51.612;7.510;2023-11-18T00:26:55;42.90;;;28.38;;
1591;SDS011;789;51.612;7.510;2023-11-18T00:29:21;45.08;;;28.67;;
1591;SDS011;789;51.612;7.510;2023-11-18T00:31:48;36.90;;;26.10;;
1591;SDS011;789;51.612;7.510;2023-11-18T00:34:15;37.13;;;25.38;;
1591;SDS011;789;51.612;7.510;2023-11-18T00:36:44;40.60;;;26.23;;
1591;SDS011;789;51.612;7.510;2023-11-18T00:39:11;43.40;;;26.45;;
1591;SDS011;789;51.612;7.510;2023-11-18T00:41:38;39.85;;;26.08;;
1591;SDS011;789;51.612;7.510;2023-11-18T00:44:05;42.42;;;26.50;;
1591;SDS011;789;51.612;7.510;2023-11-18T00:46:33;38.00;;;26.10;;
1591;SDS011;789;51.612;7.510;2023-11-18T00:49:01;34.17;;;24.10;;
1591;SDS011;789;51.612;7.510;2023-11-18T00:51:30;34.50;;;24.27;;
1591;SDS011;789;51.612;7.510;2023-11-18T00:53:58;37.83;;;25.10;;
1591;SDS011;789;51.612;7.510;2023-11-18T00:56:26;38.15;;;25.27;;
1591;SDS011;789;51.612;7.510;2023-11-18T00:58:53;38.13;;;25.45;;
1591;SDS011;789;51.612;7.510;2023-11-18T01:01:20;44.13;;;28.35;;
1591;SDS011;789;51.612;7.510;2023-11-18T01:03:47;37.25;;;25.48;;
1591;SDS011;789;51.612;7.510;2023-11-18T01:06:14;37.10;;;25.77;;
1591;SDS011;789;51.612;7.510;2023-11-18T01:08:43;40.17;;;25.95;;
1591;SDS011;789;51.612;7.510;2023-11-18T01:11:12;37.83;;;26.80;;
1591;SDS011;789;51.612;7.510;2023-11-18T01:13:43;40.65;;;26.77;;
1591;SDS011;789;51.612;7.510;2023-11-18T01:16:10;44.20;;;27.90;;
1591;SDS011;789;51.612;7.510;2023-11-18T01:18:38;39.78;;;26.95;;
1591;SDS011;789;51.612;7.510;2023-11-18T01:21:05;41.85;;;28.10;;
1591;SDS011;789;51.612;7.510;2023-11-18T01:23:34;42.22;;;25.63;;
1591;SDS011;789;51.612;7.510;2023-11-18T01:26:00;36.03;;;24.23;;
1591;SDS011;789;51.612;7.510;2023-11-18T01:28:31;36.83;;;25.13;;
1591;SDS011;789;51.612;7.510;2023-11-18T01:31:01;34.78;;;23.60;;
1591;SDS011;789;51.612;7.510;2023-11-18T01:33:29;40.08;;;24.88;;
1591;SDS011;789;51.612;7.510;2023-11-18T01:35:57;37.45;;;24.63;;
1591;SDS011;789;51.612;7.510;2023-11-18T01:38:24;37.63;;;24.48;;
1591;SDS011;789;51.612;7.510;2023-11-18T01:40:51;35.63;;;23.93;;
1591;SDS011;789;51.612;7.510;2023-11-18T01:43:19;39.78;;;25.98;;
1591;SDS011;789;51.612;7.510;2023-11-18T01:45:48;36.30;;;23.55;;
1591;SDS011;789;51.612;7.510;2023-11-18T01:48:15;38.10;;;24.55;;
1591;SDS011;789;51.612;7.510;2023-11-18T01:50:42;37.85;;;23.67;;
1591;SDS011;789;51.612;7.510;2023-11-18T01:53:12;41.38;;;25.42;;
1591;SDS011;789;51.612;7.510;2023-11-18T01:55:40;41.35;;;26.35;;
1591;SDS011;789;51.612;7.510;2023-11-18T01:58:07;45.10;;;25.95;;
1591;SDS011;789;51.612;7.510;2023-11-18T02:00:36;41.90;;;25.85;;
1591;SDS011;789;51.612;7.510;2023-11-18T02:03:05;39.92;;;26.88;;
1591;SDS011;789;51.612;7.510;2023-11-18T02:05:32;37.45;;;23.95;;
1591;SDS011;789;51.612;7.510;2023-11-18T02:07:59;40.33;;;25.10;;
1591;SDS011;789;51.612;7.510;2023-11-18T02:10:29;34.45;;;24.13;;
1591;SDS011;789;51.612;7.510;2023-11-18T02:12:57;42.20;;;25.48;;
1591;SDS011;789;51.612;7.510;2023-11-18T02:15:32;32.92;;;22.77;;
1591;SDS011;789;51.612;7.510;2023-11-18T02:18:02;36.30;;;22.10;;
1591;SDS011;789;51.612;7.510;2023-11-18T02:20:32;33.72;;;22.92;;
1591;SDS011;789;51.612;7.510;2023-11-18T02:22:59;37.10;;;21.92;;
1591;SDS011;789;51.612;7.510;2023-11-18T02:25:27;34.67;;;22.70;;
1591;SDS011;789;51.612;7.510;2023-11-18T02:27:56;32.05;;;22.73;;
1591;SDS011;789;51.612;7.510;2023-11-18T02:30:23;33.90;;;21.42;;
1591;SDS011;789;51.612;7.510;2023-11-18T02:32:52;36.10;;;22.60;;
1591;SDS011;789;51.612;7.510;2023-11-18T02:35:26;33.10;;;22.48;;
1591;SDS011;789;51.612;7.510;2023-11-18T02:37:56;36.63;;;21.80;;
1591;SDS011;789;51.612;7.510;2023-11-18T02:40:27;36.53;;;22.02;;
1591;SDS011;789;51.612;7.510;2023-11-18T02:42:59;36.30;;;22.67;;
1591;SDS011;789;51.612;7.510;2023-11-18T02:45:30;36.80;;;21.77;;
1591;SDS011;789;51.612;7.510;2023-11-18T02:47:57;33.50;;;22.10;;
1591;SDS011;789;51.612;7.510;2023-11-18T02:50:25;31.33;;;21.30;;
1591;SDS011;789;51.612;7.510;2023-11-18T02:52:53;33.47;;;20.77;;
1591;SDS011;789;51.612;7.510;2023-11-18T02:55:20;32.30;;;21.83;;
1591;SDS011;789;51.612;7.510;2023-11-18T02:57:48;35.75;;;23.48;;
1591;SDS011;789;51.612;7.510;2023-11-18T03:00:18;35.50;;;23.10;;
1591;SDS011;789;51.612;7.510;2023-11-18T03:02:46;29.55;;;19.98;;
1591;SDS011;789;51.612;7.510;2023-11-18T03:05:15;30.40;;;21.02;;
1591;SDS011;789;51.612;7.510;2023-11-18T03:07:42;35.05;;;19.52;;
1591;SDS011;789;51.612;7.510;2023-11-18T03:10:12;29.15;;;19.85;;
1591;SDS011;789;51.612;7.510;2023-11-18T03:12:45;31.70;;;19.10;;
1591;SDS011;789;51.612;7.510;2023-11-18T03:15:12;32.47;;;19.65;;
1591;SDS011;789;51.612;7.510;2023-11-18T03:17:43;32.38;;;20.52;;
1591;SDS011;789;51.612;7.510;2023-11-18T03:20:10;31.13;;;19.58;;
1591;SDS011;789;51.612;7.510;2023-11-18T03:22:39;32.92;;;20.55;;
1591;SDS011;789;51.612;7.510;2023-11-18T03:25:06;28.88;;;19.27;;
1591;SDS011;789;51.612;7.510;2023-11-18T03:27:34;30.17;;;19.80;;
1591;SDS011;789;51.612;7.510;2023-11-18T03:30:01;26.50;;;17.80;;
1591;SDS011;789;51.612;7.510;2023-11-18T03:32:28;31.33;;;19.95;;
1591;SDS011;789;51.612;7.510;2023-11-18T03:34:57;30.52;;;19.25;;
1591;SDS011;789;51.612;7.510;2023-11-18T03:37:25;31.40;;;19.20;;
1591;SDS011;789;51.612;7.510;2023-11-18T03:39:52;28.83;;;20.52;;
1591;SDS011;789;51.612;7.510;2023-11-18T03:42:19;31.10;;;19.55;;
1591;SDS011;789;51.612;7.510;2023-11-18T03:44:46;31.70;;;20.57;;
1591;SDS011;789;51.612;7.510;2023-11-18T03:47:13;30.45;;;18.70;;
1591;SDS011;789;51.612;7.510;2023-11-18T03:49:40;30.00;;;18.45;;
1591;SDS011;789;51.612;7.510;2023-11-18T03:52:08;29.63;;;19.80;;
1591;SDS011;789;51.612;7.510;2023-11-18T03:54:35;29.05;;;18.27;;
1591;SDS011;789;51.612;7.510;2023-11-18T03:57:02;27.55;;;18.88;;
1591;SDS011;789;51.612;7.510;2023-11-18T03:59:28;32.63;;;18.65;;
1591;SDS011;789;51.612;7.510;2023-11-18T04:01:55;25.63;;;17.55;;
1591;SDS011;789;51.612;7.510;2023-11-18T04:04:23;30.17;;;18.98;;
1591;SDS011;789;51.612;7.510;2023-11-18T04:06:49;30.40;;;18.02;;
1591;SDS011;789;51.612;7.510;2023-11-18T04:09:17;30.50;;;19.00;;
1591;SDS011;789;51.612;7.510;2023-11-18T04:11:44;27.67;;;17.73;;
1591;SDS011;789;51.612;7.510;2023-11-18T04:14:11;27.83;;;18.13;;
1591;SDS011;789;51.612;7.510;2023-11-18T04:16:38;32.00;;;17.90;;
1591;SDS011;789;51.612;7.510;2023-11-18T04:19:05;30.38;;;18.80;;
1591;SDS011;789;51.612;7.510;2023-11-18T04:21:32;27.08;;;18.42;;
1591;SDS011;789;51.612;7.510;2023-11-18T04:23:59;31.45;;;20.55;;
1591;SDS011;789;51.612;7.510;2023-11-18T04:26:27;28.17;;;18.13;;
1591;SDS011;789;51.612;7.510;2023-11-18T04:28:53;27.30;;;18.55;;
1591;SDS011;789;51.612;7.510;2023-11-18T04:31:20;31.25;;;17.83;;
1591;SDS011;789;51.612;7.510;2023-11-18T04:33:47;33.67;;;21.90;;
1591;SDS011;789;51.612;7.510;2023-11-18T04:36:14;28.40;;;18.30;;
1591;SDS011;789;51.612;7.510;2023-11-18T04:38:41;31.25;;;18.83;;
1591;SDS011;789;51.612;7.510;2023-11-18T04:41:08;31.10;;;18.45;;
1591;SDS011;789;51.612;7.510;2023-11-18T04:43:37;27.90;;;18.40;;
1591;SDS011;789;51.612;7.510;2023-11-18T04:46:06;26.30;;;16.42;;
1591;SDS011;789;51.612;7.510;2023-11-18T04:48:33;27.17;;;17.10;;
1591;SDS011;789;51.612;7.510;2023-11-18T04:51:00;28.33;;;17.33;;
1591;SDS011;789;51.612;7.510;2023-11-18T04:53:27;24.38;;;16.05;;
1591;SDS011;789;51.612;7.510;2023-11-18T04:55:53;28.95;;;17.95;;
1591;SDS011;789;51.612;7.510;2023-11-18T04:58:25;25.90;;;17.30;;
1591;SDS011;789;51.612;7.510;2023-11-18T05:00:54;26.77;;;16.10;;
1591;SDS011;789;51.612;7.510;2023-11-18T05:03:21;28.50;;;17.40;;
1591;SDS011;789;51.612;7.510;2023-11-18T05:05:49;27.90;;;18.20;;
1591;SDS011;789;51.612;7.510;2023-11-18T05:08:19;23.77;;;16.33;;
1591;SDS011;789;51.612;7.510;2023-11-18T05:10:46;24.40;;;16.70;;
1591;SDS011;789;51.612;7.510;2023-11-18T05:13:13;26.27;;;18.00;;
1591;SDS011;789;51.612;7.510;2023-11-18T05:15:42;22.65;;;15.98;;
1591;SDS011;789;51.612;7.510;2023-11-18T05:18:11;24.10;;;16.10;;
1591;SDS011;789;51.612;7.510;2023-11-18T05:20:39;23.80;;;17.10;;
1591;SDS011;789;51.612;7.510;2023-11-18T05:23:06;23.52;;;16.88;;
1591;SDS011;789;51.612;7.510;2023-11-18T05:25:34;30.33;;;16.33;;
1591;SDS011;789;51.612;7.510;2023-11-18T05:28:02;25.92;;;16.30;;
1591;SDS011;789;51.612;7.510;2023-11-18T05:30:30;24.75;;;15.60;;
1591;SDS011;789;51.612;7.510;2023-11-18T05:32:57;26.17;;;16.80;;
1591;SDS011;789;51.612;7.510;2023-11-18T05:35:25;27.48;;;18.15;;
1591;SDS011;789;51.612;7.510;2023-11-18T05:37:53;24.90;;;15.63;;
1591;SDS011;789;51.612;7.510;2023-11-18T05:40:20;23.92;;;15.88;;
1591;SDS011;789;51.612;7.510;2023-11-18T05:42:47;28.95;;;18.02;;
1591;SDS011;789;51.612;7.510;2023-11-18T05:45:17;26.17;;;16.05;;
1591;SDS011;789;51.612;7.510;2023-11-18T05:47:53;23.27;;;15.18;;
1591;SDS011;789;51.612;7.510;2023-11-18T05:50:20;24.58;;;15.65;;
1591;SDS011;789;51.612;7.510;2023-11-18T05:52:48;22.90;;;14.90;;
1591;SDS011;789;51.612;7.510;2023-11-18T05:55:15;22.67;;;15.70;;
1591;SDS011;789;51.612;7.510;2023-11-18T05:57:42;22.92;;;15.80;;
1591;SDS011;789;51.612;7.510;2023-11-18T06:00:10;21.73;;;15.85;;
1591;SDS011;789;51.612;7.510;2023-11-18T06:02:40;25.35;;;15.68;;
1591;SDS011;789;51.612;7.510;2023-11-18T06:05:07;25.58;;;16.00;;
1591;SDS011;789;51.612;7.510;2023-11-18T06:07:34;28.52;;;16.00;;
1591;SDS011;789;51.612;7.510;2023-11-18T06:10:03;28.73;;;16.17;;
1591;SDS011;789;51.612;7.510;2023-11-18T06:12:30;22.60;;;14.60;;
1591;SDS011;789;51.612;7.510;2023-11-18T06:14:57;24.67;;;15.90;;
1591;SDS011;789;51.612;7.510;2023-11-18T06:17:24;23.95;;;16.23;;
1591;SDS011;789;51.612;7.510;2023-11-18T06:19:53;22.17;;;16.38;;
1591;SDS011;789;51.612;7.510;2023-11-18T06:22:19;22.52;;;15.50;;
1591;SDS011;789;51.612;7.510;2023-11-18T06:24:46;27.13;;;17.17;;
1591;SDS011;789;51.612;7.510;2023-11-18T06:27:14;24.85;;;16.85;;
1591;SDS011;789;51.612;7.510;2023-11-18T06:29:42;28.77;;;17.42;;
1591;SDS011;789;51.612;7.510;2023-11-18T06:32:10;26.67;;;15.80;;
1591;SDS011;789;51.612;7.510;2023-11-18T06:34:37;23.17;;;16.45;;
1591;SDS011;789;51.612;7.510;2023-11-18T06:37:04;23.67;;;15.80;;
1591;SDS011;789;51.612;7.510;2023-11-18T06:39:31;25.50;;;16.08;;
1591;SDS011;789;51.612;7.510;2023-11-18T06:42:00;25.35;;;15.73;;
1591;SDS011;789;51.612;7.510;2023-11-18T06:44:31;24.67;;;15.40;;
1591;SDS011;789;51.612;7.510;2023-11-18T06:46:58;22.83;;;15.38;;
1591;SDS011;789;51.612;7.510;2023-11-18T06:49:27;20.70;;;14.85;;
1591;SDS011;789;51.612;7.510;2023-11-18T06:51:54;21.20;;;15.63;;
1591;SDS011;789;51.612;7.510;2023-11-18T06:54:21;22.15;;;14.65;;
1591;SDS011;789;51.612;7.510;2023-11-18T06:56:49;30.17;;;17.08;;
1591;SDS011;789;51.612;7.510;2023-11-18T06:59:18;25.55;;;15.07;;
1591;SDS011;789;51.612;7.510;2023-11-18T07:01:46;19.83;;;14.40;;
1591;SDS011;789;51.612;7.510;2023-11-18T07:04:12;21.98;;;14.23;;
1591;SDS011;789;51.612;7.510;2023-11-18T07:06:40;23.13;;;15.35;;
1591;SDS011;789;51.612;7.510;2023-11-18T07:09:08;21.02;;;15.07;;
1591;SDS011;789;51.612;7.510;2023-11-18T07:11:39;19.77;;;14.30;;
1591;SDS011;789;51.612;7.510;2023-11-18T07:14:06;23.10;;;16.33;;
1591;SDS011;789;51.612;7.510;2023-11-18T07:16:34;24.55;;;16.92;;
1591;SDS011;789;51.612;7.510;2023-11-18T07:19:02;22.85;;;16.95;;
1591;SDS011;789;51.612;7.510;2023-11-18T07:21:29;24.80;;;16.58;;
1591;SDS011;789;51.612;7.510;2023-11-18T07:23:56;22.40;;;16.90;;
1591;SDS011;789;51.612;7.510;2023-11-18T07:26:23;22.60;;;15.98;;
1591;SDS011;789;51.612;7.510;2023-11-18T07:28:50;21.25;;;15.80;;
1591;SDS011;789;51.612;7.510;2023-11-18T07:31:17;23.00;;;15.48;;
1591;SDS011;789;51.612;7.510;2023-11-18T07:33:44;22.92;;;15.80;;
1591;SDS011;789;51.612;7.510;2023-11-18T07:36:15;21.88;;;15.68;;
1591;SDS011;789;51.612;7.510;2023-11-18T07:38:42;21.10;;;15.02;;
1591;SDS011;789;51.612;7.510;2023-11-18T07:41:09;23.95;;;15.77;;
1591;SDS011;789;51.612;7.510;2023-11-18T07:43:48;23.75;;;15.25;;
1591;SDS011;789;51.612;7.510;2023-11-18T07:46:15;22.92;;;15.85;;
1591;SDS011;789;51.612;7.510;2023-11-18T07:48:42;24.73;;;16.27;;
1591;SDS011;789;51.612;7.510;2023-11-18T07:51:09;23.05;;;16.50;;
1591;SDS011;789;51.612;7.510;2023-11-18T07:53:38;20.38;;;15.00;;
1591;SDS011;789;51.612;7.510;2023-11-18T07:56:05;21.15;;;15.32;;
1591;SDS011;789;51.612;7.510;2023-11-18T07:58:36;21.43;;;15.40;;
1591;SDS011;789;51.612;7.510;2023-11-18T08:01:03;22.70;;;15.98;;
1591;SDS011;789;51.612;7.510;2023-11-18T08:03:32;22.38;;;16.60;;
1591;SDS011;789;51.612;7.510;2023-11-18T08:05:59;18.60;;;14.30;;
1591;SDS011;789;51.612;7.510;2023-11-18T08:08:27;24.58;;;16.17;;
1591;SDS011;789;51.612;7.510;2023-11-18T08:10:55;25.20;;;15.80;;
1591;SDS011;789;51.612;7.510;2023-11-18T08:13:21;22.67;;;15.23;;
1591;SDS011;789;51.612;7.510;2023-11-18T08:15:48;26.43;;;15.60;;
1591;SDS011;789;51.612;7.510;2023-11-18T08:18:15;22.90;;;15.97;;
1591;SDS011;789;51.612;7.510;2023-11-18T08:20:43;23.63;;;15.73;;
1591;SDS011;789;51.612;7.510;2023-11-18T08:23:10;21.83;;;16.83;;
1591;SDS011;789;51.612;7.510;2023-11-18T08:25:36;20.55;;;15.32;;
1591;SDS011;789;51.612;7.510;2023-11-18T08:28:06;19.50;;;16.00;;
1591;SDS011;789;51.612;7.510;2023-11-18T08:30:34;23.02;;;16.38;;
1591;SDS011;789;51.612;7.510;2023-11-18T08:33:04;21.83;;;16.07;;
1591;SDS011;789;51.612;7.510;2023-11-18T08:35:33;22.67;;;16.08;;
1591;SDS011;789;51.612;7.510;2023-11-18T08:38:00;22.65;;;14.68;;
1591;SDS011;789;51.612;7.510;2023-11-18T08:40:29;20.83;;;15.57;;
1591;SDS011;789;51.612;7.510;2023-11-18T08:42:56;22.33;;;15.82;;
1591;SDS011;789;51.612;7.510;2023-11-18T08:45:24;23.03;;;17.57;;
1591;SDS011;789;51.612;7.510;2023-11-18T08:47:53;20.30;;;14.63;;
1591;SDS011;789;51.612;7.510;2023-11-18T08:50:21;22.63;;;16.37;;
1591;SDS011;789;51.612;7.510;2023-11-18T08:52:49;24.40;;;16.23;;
1591;SDS011;789;51.612;7.510;2023-11-18T08:55:19;23.40;;;16.30;;
1591;SDS011;789;51.612;7.510;2023-11-18T08:57:50;28.30;;;16.40;;
1591;SDS011;789;51.612;7.510;2023-11-18T09:00:30;20.95;;;15.95;;
1591;SDS011;789;51.612;7.510;2023-11-18T09:03:13;21.02;;;15.63;;
1591;SDS011;789;51.612;7.510;2023-11-18T09:05:49;21.63;;;17.17;;
1591;SDS011;789;51.612;7.510;2023-11-18T09:08:26;23.50;;;16.43;;
1591;SDS011;789;51.612;7.510;2023-11-18T09:10:54;22.03;;;15.87;;
1591;SDS011;789;51.612;7.510;2023-11-18T09:13:22;23.05;;;16.25;;
1591;SDS011;789;51.612;7.510;2023-11-18T09:15:55;23.70;;;16.17;;
1591;SDS011;789;51.612;7.510;2023-11-18T09:18:22;23.17;;;15.40;;
1591;SDS011;789;51.612;7.510;2023-11-18T09:20:50;20.83;;;15.15;;
1591;SDS011;789;51.612;7.510;2023-11-18T09:23:19;21.25;;;15.13;;
1591;SDS011;789;51.612;7.510;2023-11-18T09:25:48;20.55;;;14.25;;
1591;SDS011;789;51.612;7.510;2023-11-18T09:28:18;21.40;;;14.95;;
1591;SDS011;789;51.612;7.510;2023-11-18T09:30:46;21.93;;;14.00;;
1591;SDS011;789;51.612;7.510;2023-11-18T09:33:20;20.03;;;14.40;;
1591;SDS011;789;51.612;7.510;2023-11-18T09:35:57;19.50;;;14.25;;
1591;SDS011;789;51.612;7.510;2023-11-18T09:38:26;21.73;;;14.85;;
1591;SDS011;789;51.612;7.510;2023-11-18T09:40:57;19.73;;;14.40;;
1591;SDS011;789;51.612;7.510;2023-11-18T09:43:28;18.83;;;14.15;;
1591;SDS011;789;51.612;7.510;2023-11-18T09:45:58;17.85;;;12.98;;
1591;SDS011;789;51.612;7.510;2023-11-18T09:48:38;18.13;;;13.23;;
1591;SDS011;789;51.612;7.510;2023-11-18T09:51:14;20.47;;;13.77;;
1591;SDS011;789;51.612;7.510;2023-11-18T09:53:46;18.73;;;13.67;;
1591;SDS011;789;51.612;7.510;2023-11-18T09:56:18;18.10;;;12.83;;
1591;SDS011;789;51.612;7.510;2023-11-18T09:58:54;17.00;;;12.18;;
1591;SDS011;789;51.612;7.510;2023-11-18T10:01:28;15.88;;;12.55;;
1591;SDS011;789;51.612;7.510;2023-11-18T10:04:00;15.97;;;11.20;;
1591;SDS011;789;51.612;7.510;2023-11-18T10:06:31;21.10;;;12.50;;
1591;SDS011;789;51.612;7.510;2023-11-18T10:09:01;19.92;;;13.15;;
1591;SDS011;789;51.612;7.510;2023-11-18T10:11:40;16.73;;;11.85;;
1591;SDS011;789;51.612;7.510;2023-11-18T10:14:08;17.30;;;11.73;;
1591;SDS011;789;51.612;7.510;2023-11-18T10:16:36;15.73;;;11.67;;
1591;SDS011;789;51.612;7.510;2023-11-18T10:19:04;15.27;;;11.18;;
1591;SDS011;789;51.612;7.510;2023-11-18T10:21:35;20.50;;;12.07;;
1591;SDS011;789;51.612;7.510;2023-11-18T10:24:05;18.92;;;12.32;;
1591;SDS011;789;51.612;7.510;2023-11-18T10:26:39;13.23;;;9.63;;
1591;SDS011;789;51.612;7.510;2023-11-18T10:29:10;14.67;;;10.63;;
1591;SDS011;789;51.612;7.510;2023-11-18T10:31:38;17.93;;;11.50;;
1591;SDS011;789;51.612;7.510;2023-11-18T10:34:12;14.57;;;10.40;;
1591;SDS011;789;51.612;7.510;2023-11-18T10:36:42;12.77;;;9.90;;
1591;SDS011;789;51.612;7.510;2023-11-18T10:39:27;12.30;;;9.05;;
1591;SDS011;789;51.612;7.510;2023-11-18T10:41:58;13.68;;;9.65;;
1591;SDS011;789;51.612;7.510;2023-11-18T10:44:26;11.40;;;8.23;;
1591;SDS011;789;51.612;7.510;2023-11-18T10:46:54;11.30;;;8.10;;
1591;SDS011;789;51.612;7.510;2023-11-18T10:49:25;11.10;;;8.17;;
1591;SDS011;789;51.612;7.510;2023-11-18T10:51:54;13.70;;;8.30;;
1591;SDS011;789;51.612;7.510;2023-11-18T10:54:22;13.50;;;8.17;;
1591;SDS011;789;51.612;7.510;2023-11-18T10:56:51;10.67;;;7.70;;
1591;SDS011;789;51.612;7.510;2023-11-18T10:59:21;9.57;;;7.30;;
1591;SDS011;789;51.612;7.510;2023-11-18T11:01:49;10.60;;;7.90;;
1591;SDS011;789;51.612;7.510;2023-11-18T11:04:16;13.23;;;8.63;;
1591;SDS011;789;51.612;7.510;2023-11-18T11:06:47;10.37;;;8.10;;
1591;SDS011;789;51.612;7.510;2023-11-18T11:09:18;12.20;;;8.63;;
1591;SDS011;789;51.612;7.510;2023-11-18T11:11:50;12.70;;;8.50;;
1591;SDS011;789;51.612;7.510;2023-11-18T11:14:20;11.93;;;10.02;;
1591;SDS011;789;51.612;7.510;2023-11-18T11:16:51;14.70;;;10.10;;
1591;SDS011;789;51.612;7.510;2023-11-18T11:19:25;14.10;;;11.10;;
1591;SDS011;789;51.612;7.510;2023-11-18T11:22:01;15.70;;;10.10;;
1591;SDS011;789;51.612;7.510;2023-11-18T11:24:36;12.70;;;9.43;;
1591;SDS011;789;51.612;7.510;2023-11-18T11:27:17;15.07;;;9.70;;
1591;SDS011;789;51.612;7.510;2023-11-18T11:29:55;14.93;;;9.90;;
1591;SDS011;789;51.612;7.510;2023-11-18T11:32:26;15.20;;;9.77;;
1591;SDS011;789;51.612;7.510;2023-11-18T11:35:04;13.87;;;10.30;;
1591;SDS011;789;51.612;7.510;2023-11-18T11:37:43;13.00;;;9.53;;
1591;SDS011;789;51.612;7.510;2023-11-18T11:40:12;17.67;;;10.13;;
1591;SDS011;789;51.612;7.510;2023-11-18T11:42:47;13.10;;;10.17;;
1591;SDS011;789;51.612;7.510;2023-11-18T11:45:20;12.50;;;9.63;;
1591;SDS011;789;51.612;7.510;2023-11-18T11:47:53;13.17;;;10.07;;
1591;SDS011;789;51.612;7.510;2023-11-18T11:50:39;11.80;;;9.90;;
1591;SDS011;789;51.612;7.510;2023-11-18T11:53:23;20.10;;;10.53;;
1591;SDS011;789;51.612;7.510;2023-11-18T11:55:53;12.83;;;10.13;;
1591;SDS011;789;51.612;7.510;2023-11-18T11:58:30;20.40;;;10.43;;
1591;SDS011;789;51.612;7.510;2023-11-18T12:00:58;16.50;;;10.80;;
1591;SDS011;789;51.612;7.510;2023-11-18T12:03:27;19.40;;;11.97;;
1591;SDS011;789;51.612;7.510;2023-11-18T12:06:01;14.93;;;10.57;;
1591;SDS011;789;51.612;7.510;2023-11-18T12:08:34;11.80;;;9.13;;
1591;SDS011;789;51.612;7.510;2023-11-18T12:11:02;13.73;;;9.30;;
1591;SDS011;789;51.612;7.510;2023-11-18T12:13:34;11.67;;;8.40;;
1591;SDS011;789;51.612;7.510;2023-11-18T12:16:04;11.90;;;8.20;;
1591;SDS011;789;51.612;7.510;2023-11-18T12:18:35;10.57;;;8.40;;
1591;SDS011;789;51.612;7.510;2023-11-18T12:21:02;17.70;;;9.80;;
1591;SDS011;789;51.612;7.510;2023-11-18T12:23:29;12.43;;;9.83;;
1591;SDS011;789;51.612;7.510;2023-11-18T12:26:00;19.73;;;9.73;;
1591;SDS011;789;51.612;7.510;2023-11-18T12:28:28;13.07;;;9.33;;
1591;SDS011;789;51.612;7.510;2023-11-18T12:30:59;10.63;;;8.13;;
1591;SDS011;789;51.612;7.510;2023-11-18T12:42:57;8.77;;;6.77;;
1591;SDS011;789;51.612;7.510;2023-11-18T12:45:43;13.30;;;6.80;;
1591;SDS011;789;51.612;7.510;2023-11-18T12:48:28;9.20;;;7.53;;
1591;SDS011;789;51.612;7.510;2023-11-18T12:50:57;11.17;;;7.90;;
1591;SDS011;789;51.612;7.510;2023-11-18T12:53:25;11.93;;;8.17;;
1591;SDS011;789;51.612;7.510;2023-11-18T12:55:53;9.87;;;7.90;;
1591;SDS011;789;51.612;7.510;2023-11-18T12:58:22;7.93;;;5.90;;
1591;SDS011;789;51.612;7.510;2023-11-18T13:00:49;6.40;;;5.03;;
1591;SDS011;789;51.612;7.510;2023-11-18T13:03:16;9.90;;;6.73;;
1591;SDS011;789;51.612;7.510;2023-11-18T13:05:43;10.97;;;7.63;;
1591;SDS011;789;51.612;7.510;2023-11-18T13:08:10;10.07;;;6.73;;
1591;SDS011;789;51.612;7.510;2023-11-18T13:10:40;12.33;;;6.87;;
1591;SDS011;789;51.612;7.510;2023-11-18T13:13:08;6.60;;;6.00;;
1591;SDS011;789;51.612;7.510;2023-11-18T13:15:40;9.13;;;6.85;;
1591;SDS011;789;51.612;7.510;2023-11-18T13:18:07;12.67;;;7.20;;
1591;SDS011;789;51.612;7.510;2023-11-18T13:20:34;9.60;;;7.27;;
1591;SDS011;789;51.612;7.510;2023-11-18T13:23:01;10.10;;;7.67;;
1591;SDS011;789;51.612;7.510;2023-11-18T13:25:33;10.45;;;7.40;;
1591;SDS011;789;51.612;7.510;2023-11-18T13:28:01;11.90;;;7.30;;
1591;SDS011;789;51.612;7.510;2023-11-18T13:30:30;8.67;;;7.03;;
1591;SDS011;789;51.612;7.510;2023-11-18T13:32:58;14.13;;;7.47;;
1591;SDS011;789;51.612;7.510;2023-11-18T13:35:26;8.37;;;6.60;;
1591;SDS011;789;51.612;7.510;2023-11-18T13:37:53;8.27;;;6.57;;
1591;SDS011;789;51.612;7.510;2023-11-18T13:40:21;8.80;;;6.63;;
1591;SDS011;789;51.612;7.510;2023-11-18T13:42:53;9.87;;;7.10;;
1591;SDS011;789;51.612;7.510;2023-11-18T13:45:28;12.33;;;8.53;;
1591;SDS011;789;51.612;7.510;2023-11-18T13:47:55;9.47;;;7.60;;
1591;SDS011;789;51.612;7.510;2023-11-18T13:50:24;9.60;;;7.23;;
1591;SDS011;789;51.612;7.510;2023-11-18T13:52:52;12.33;;;7.30;;
1591;SDS011;789;51.612;7.510;2023-11-18T13:55:19;10.63;;;6.50;;
1591;SDS011;789;51.612;7.510;2023-11-18T13:57:51;7.47;;;6.70;;
1591;SDS011;789;51.612;7.510;2023-11-18T14:00:21;11.10;;;7.07;;
1591;SDS011;789;51.612;7.510;2023-11-18T14:02:51;13.30;;;7.13;;
1591;SDS011;789;51.612;7.510;2023-11-18T14:05:20;7.90;;;6.90;;
1591;SDS011;789;51.612;7.510;2023-11-18T14:07:51;8.07;;;7.27;;
1591;SDS011;789;51.612;7.510;2023-11-18T14:10:20;11.10;;;7.97;;
1591;SDS011;789;51.612;7.510;2023-11-18T14:12:59;10.10;;;7.70;;
1591;SDS011;789;51.612;7.510;2023-11-18T14:15:28;8.75;;;6.88;;
1591;SDS011;789;51.612;7.510;2023-11-18T14:17:56;8.83;;;6.80;;
1591;SDS011;789;51.612;7.510;2023-11-18T14:20:22;8.43;;;7.50;;
1591;SDS011;789;51.612;7.510;2023-11-18T14:22:51;8.10;;;6.83;;
1591;SDS011;789;51.612;7.510;2023-11-18T14:25:19;10.15;;;7.85;;
1591;SDS011;789;51.612;7.510;2023-11-18T14:27:48;11.38;;;7.28;;
1591;SDS011;789;51.612;7.510;2023-11-18T14:30:16;14.37;;;7.17;;
1591;SDS011;789;51.612;7.510;2023-11-18T14:32:42;10.13;;;6.50;;
1591;SDS011;789;51.612;7.510;2023-11-18T14:35:09;11.68;;;6.80;;
1591;SDS011;789;51.612;7.510;2023-11-18T14:37:41;9.80;;;6.40;;
1591;SDS011;789;51.612;7.510;2023-11-18T14:40:11;10.40;;;6.50;;
1591;SDS011;789;51.612;7.510;2023-11-18T14:42:40;8.50;;;6.60;;
1591;SDS011;789;51.612;7.510;2023-11-18T14:45:09;12.60;;;6.23;;
1591;SDS011;789;51.612;7.510;2023-11-18T14:47:37;11.20;;;6.53;;
1591;SDS011;789;51.612;7.510;2023-11-18T14:50:05;7.50;;;6.70;;
1591;SDS011;789;51.612;7.510;2023-11-18T14:52:42;10.60;;;6.70;;
1591;SDS011;789;51.612;7.510;2023-11-18T14:55:11;15.30;;;7.03;;
1591;SDS011;789;51.612;7.510;2023-11-18T14:57:39;7.90;;;6.60;;
1591;SDS011;789;51.612;7.510;2023-11-18T15:00:06;11.70;;;6.07;;
1591;SDS011;789;51.612;7.510;2023-11-18T15:02:34;7.10;;;6.17;;
1591;SDS011;789;51.612;7.510;2023-11-18T15:05:01;8.67;;;6.67;;
1591;SDS011;789;51.612;7.510;2023-11-18T15:07:30;10.97;;;6.53;;
1591;SDS011;789;51.612;7.510;2023-11-18T15:09:57;9.60;;;5.57;;
1591;SDS011;789;51.612;7.510;2023-11-18T15:12:25;8.80;;;6.57;;
1591;SDS011;789;51.612;7.510;2023-11-18T15:14:52;9.00;;;6.00;;
1591;SDS011;789;51.612;7.510;2023-11-18T15:17:18;12.93;;;7.40;;
1591;SDS011;789;51.612;7.510;2023-11-18T15:19:47;8.90;;;5.90;;
1591;SDS011;789;51.612;7.510;2023-11-18T15:22:15;11.83;;;6.87;;
1591;SDS011;789;51.612;7.510;2023-11-18T15:24:42;9.27;;;6.60;;
1591;SDS011;789;51.612;7.510;2023-11-18T15:27:09;7.97;;;6.60;;
1591;SDS011;789;51.612;7.510;2023-11-18T15:29:37;8.37;;;6.17;;